Time;durP1;ratioP1;P1;durP2;ratioP2;P2;SDS_P1;SDS_P2;PMS_P1;PMS_P2;Temp;Humidity;BMP_temperature;BMP_pressure;BME280_temperature;BME280_humidity;BME280_pressure;Samples;Min_cycle;Max_cycle;Signal;HPM_P1;HPM_P2
2022/08/03 00:00:25;;;;;;;9.23;1.92;;;;;;;;;;5021361;28;20058;-74
2022/08/03 00:02:52;;;;;;;10.88;2.38;;;;;;;;;;5023913;28;20054;-74
2022/08/03 00:05:20;;;;;;;5.93;1.80;;;;;;;;;;5024056;28;20145;-75
2022/08/03 00:07:47;;;;;;;5.55;1.90;;;;;;;;;;5025038;28;20590;-75
2022/08/03 00:10:15;;;;;;;4.97;1.70;;;;;;;;;;5018464;28;20515;-75
2022/08/03 00:12:43;;;;;;;4.93;1.52;;;;;;;;;;5026212;28;20114;-74
2022/08/03 00:15:10;;;;;;;8.13;1.75;;;;;;;;;;5020702;28;20046;-74
2022/08/03 00:17:42;;;;;;;5.38;1.60;;;;;;;;;;5027566;28;21123;-74
2022/08/03 00:20:20;;;;;;;6.78;1.90;;;;;;;;;;5022890;28;20054;-74
2022/08/03 00:22:47;;;;;;;5.30;1.60;;;;;;;;;;5030083;28;20056;-74
2022/08/03 00:25:14;;;;;;;5.60;1.90;;;;;;;;;;5027625;28;20084;-74
2022/08/03 00:27:42;;;;;;;6.07;1.60;;;;;;;;;;5025174;28;20047;-76
2022/08/03 00:30:10;;;;;;;8.52;1.83;;;;;;;;;;5017840;28;20188;-74
2022/08/03 00:32:37;;;;;;;7.32;1.60;;;;;;;;;;5022610;28;20811;-74
2022/08/03 00:35:11;;;;;;;7.63;1.90;;;;;;;;;;5022903;28;20050;-75
2022/08/03 00:37:58;;;;;;;9.45;2.45;;;;;;;;;;5023745;28;20733;-75
2022/08/03 00:40:25;;;;;;;11.65;2.70;;;;;;;;;;5019698;28;20153;-75
2022/08/03 00:42:57;;;;;;;11.25;3.17;;;;;;;;;;5024080;28;20055;-73
2022/08/03 00:45:25;;;;;;;12.82;2.40;;;;;;;;;;5021024;28;20073;-74
2022/08/03 00:47:53;;;;;;;11.88;2.28;;;;;;;;;;5020952;28;20050;-74
2022/08/03 00:50:21;;;;;;;8.25;2.13;;;;;;;;;;5021007;28;20064;-76
2022/08/03 00:52:49;;;;;;;8.18;2.15;;;;;;;;;;5020037;28;20854;-74
2022/08/03 00:55:17;;;;;;;8.70;2.30;;;;;;;;;;5026817;28;21320;-75
2022/08/03 00:57:45;;;;;;;6.80;1.77;;;;;;;;;;5024259;28;20058;-74
2022/08/03 01:00:13;;;;;;;6.90;2.13;;;;;;;;;;5020470;28;20073;-75
2022/08/03 01:02:40;;;;;;;9.35;1.95;;;;;;;;;;5014166;28;22647;-73
2022/08/03 01:05:08;;;;;;;7.70;2.30;;;;;;;;;;5024253;28;20054;-74
2022/08/03 01:07:54;;;;;;;9.07;2.40;;;;;;;;;;5025472;28;20054;-76
2022/08/03 01:10:21;;;;;;;13.05;2.40;;;;;;;;;;5025003;28;20057;-74
2022/08/03 01:12:52;;;;;;;8.05;2.42;;;;;;;;;;5020441;28;20046;-75
2022/08/03 01:15:38;;;;;;;7.15;2.33;;;;;;;;;;5019939;28;20056;-75
2022/08/03 01:18:05;;;;;;;7.60;2.17;;;;;;;;;;5025498;28;20046;-74
2022/08/03 01:20:33;;;;;;;7.13;2.03;;;;;;;;;;5039195;28;20054;-75
2022/08/03 01:23:24;;;;;;;9.02;2.58;;;;;;;;;;5024648;28;20050;-75
2022/08/03 01:26:13;;;;;;;8.77;2.42;;;;;;;;;;5025061;28;20124;-75
2022/08/03 01:28:41;;;;;;;12.57;2.35;;;;;;;;;;5020511;28;20188;-75
2022/08/03 01:31:09;;;;;;;6.85;2.30;;;;;;;;;;5024455;28;20042;-74
2022/08/03 01:33:40;;;;;;;6.85;2.42;;;;;;;;;;5016993;28;20058;-75
2022/08/03 01:36:09;;;;;;;9.15;2.40;;;;;;;;;;5016978;28;20046;-76
2022/08/03 01:38:41;;;;;;;10.68;2.38;;;;;;;;;;5016288;28;20078;-75
2022/08/03 01:41:11;;;;;;;8.80;2.30;;;;;;;;;;5018969;28;20058;-75
2022/08/03 01:43:40;;;;;;;9.80;2.30;;;;;;;;;;5022093;28;20046;-76
2022/08/03 01:46:28;;;;;;;7.32;2.40;;;;;;;;;;5018348;28;20054;-74
2022/08/03 01:48:55;;;;;;;11.57;2.70;;;;;;;;;;5020525;28;20056;-76
2022/08/03 01:51:23;;;;;;;8.95;2.13;;;;;;;;;;5016717;28;20054;-75
2022/08/03 01:54:11;;;;;;;8.43;2.28;;;;;;;;;;5022443;28;20054;-75
2022/08/03 01:56:40;;;;;;;8.68;2.70;;;;;;;;;;5022254;28;20046;-75
2022/08/03 01:59:08;;;;;;;9.18;2.80;;;;;;;;;;5016099;28;20132;-75
2022/08/03 02:01:36;;;;;;;6.97;2.38;;;;;;;;;;5020141;28;20054;-74
2022/08/03 02:04:25;;;;;;;6.15;2.17;;;;;;;;;;5015110;28;20058;-75
2022/08/03 02:06:53;;;;;;;6.25;2.58;;;;;;;;;;5017768;28;20050;-74
2022/08/03 02:09:29;;;;;;;11.07;3.15;;;;;;;;;;5018694;28;20050;-74
2022/08/03 02:11:57;;;;;;;8.10;2.80;;;;;;;;;;5021844;28;20058;-75
2022/08/03 02:14:25;;;;;;;12.77;3.58;;;;;;;;;;5018465;28;20054;-75
2022/08/03 02:16:53;;;;;;;15.38;3.13;;;;;;;;;;5013723;28;20435;-75
2022/08/03 02:19:24;;;;;;;13.05;4.03;;;;;;;;;;5012808;28;20050;-75
2022/08/03 02:21:53;;;;;;;14.32;3.47;;;;;;;;;;5020806;28;20050;-74
2022/08/03 02:24:27;;;;;;;8.82;2.92;;;;;;;;;;5021531;28;20057;-74
2022/08/03 02:26:55;;;;;;;7.97;2.83;;;;;;;;;;5020238;28;20888;-75
2022/08/03 02:29:25;;;;;;;14.75;3.03;;;;;;;;;;5022734;28;20050;-75
2022/08/03 02:32:08;;;;;;;9.75;3.10;;;;;;;;;;5020486;28;20081;-74
2022/08/03 02:34:36;;;;;;;10.70;3.08;;;;;;;;;;5014220;28;20061;-74
2022/08/03 02:37:04;;;;;;;10.98;3.20;;;;;;;;;;5019418;28;21261;-74
2022/08/03 02:39:33;;;;;;;13.35;3.60;;;;;;;;;;5019505;28;20085;-74
2022/08/03 02:42:01;;;;;;;6.82;2.90;;;;;;;;;;5014073;28;20142;-74
2022/08/03 02:44:34;;;;;;;9.88;3.25;;;;;;;;;;5021058;28;20039;-74
2022/08/03 02:47:04;;;;;;;9.75;2.67;;;;;;;;;;5023655;28;20057;-74
2022/08/03 02:49:33;;;;;;;8.02;2.42;;;;;;;;;;5016620;28;20050;-75
2022/08/03 02:52:20;;;;;;;19.65;2.70;;;;;;;;;;5036451;28;20587;-74
2022/08/03 02:54:48;;;;;;;13.32;2.80;;;;;;;;;;5022401;28;20057;-74
2022/08/03 02:57:18;;;;;;;18.45;3.58;;;;;;;;;;5016345;28;20058;-75
2022/08/03 02:59:45;;;;;;;8.35;3.03;;;;;;;;;;5018591;28;20158;-74
2022/08/03 03:02:14;;;;;;;12.20;3.00;;;;;;;;;;5024188;28;20120;-74
2022/08/03 03:04:43;;;;;;;10.68;3.20;;;;;;;;;;5016449;28;20105;-74
2022/08/03 03:07:30;;;;;;;8.07;3.15;;;;;;;;;;5021467;28;20057;-74
2022/08/03 03:10:18;;;;;;;16.33;3.45;;;;;;;;;;5019138;28;20129;-75
2022/08/03 03:12:46;;;;;;;11.98;3.17;;;;;;;;;;5018262;28;20141;-75
2022/08/03 03:15:13;;;;;;;14.70;3.60;;;;;;;;;;5021974;28;20105;-74
2022/08/03 03:17:42;;;;;;;7.25;2.97;;;;;;;;;;5019965;28;20399;-74
2022/08/03 03:20:10;;;;;;;13.82;3.10;;;;;;;;;;5020885;28;20141;-74
2022/08/03 03:22:37;;;;;;;12.25;3.63;;;;;;;;;;5035740;28;20060;-76
2022/08/03 03:25:09;;;;;;;13.07;3.60;;;;;;;;;;5023125;28;20034;-75
2022/08/03 03:27:37;;;;;;;9.20;2.92;;;;;;;;;;5015159;28;20046;-75
2022/08/03 03:30:04;;;;;;;11.68;3.40;;;;;;;;;;5020112;28;20050;-75
2022/08/03 03:32:32;;;;;;;10.85;3.83;;;;;;;;;;5015094;28;20082;-75
2022/08/03 03:35:00;;;;;;;11.30;4.20;;;;;;;;;;5038642;28;20145;-75
2022/08/03 03:37:30;;;;;;;12.60;3.28;;;;;;;;;;5019731;28;20056;-75
2022/08/03 03:39:57;;;;;;;11.43;3.58;;;;;;;;;;5017933;28;20053;-75
2022/08/03 03:42:25;;;;;;;13.27;3.30;;;;;;;;;;5030794;28;20080;-74
2022/08/03 03:44:52;;;;;;;11.13;3.60;;;;;;;;;;5020137;28;20101;-74
2022/08/03 03:47:20;;;;;;;11.88;3.20;;;;;;;;;;5015202;28;20046;-74
2022/08/03 03:49:59;;;;;;;7.13;3.20;;;;;;;;;;5016622;28;20061;-75
2022/08/03 03:52:26;;;;;;;15.45;3.78;;;;;;;;;;5021769;28;20046;-75
2022/08/03 03:54:53;;;;;;;13.02;3.20;;;;;;;;;;5021144;28;21132;-75
2022/08/03 03:57:26;;;;;;;12.00;3.03;;;;;;;;;;5021031;28;20054;-74
2022/08/03 03:59:53;;;;;;;13.85;3.97;;;;;;;;;;5015131;28;20053;-75
2022/08/03 04:02:21;;;;;;;11.73;3.40;;;;;;;;;;5017724;28;20889;-75
2022/08/03 04:13:16;;;;;;;7.05;2.95;;;;;;;;;;5015032;28;20226;-74
2022/08/03 04:15:43;;;;;;;13.73;3.60;;;;;;;;;;5022555;28;20193;-74
2022/08/03 04:18:12;;;;;;;17.35;3.90;;;;;;;;;;5022071;28;20038;-74
2022/08/03 04:20:40;;;;;;;13.93;3.38;;;;;;;;;;5018937;28;20046;-74
2022/08/03 04:23:08;;;;;;;15.07;3.67;;;;;;;;;;5018485;28;20085;-74
2022/08/03 04:25:42;;;;;;;8.98;3.00;;;;;;;;;;5021971;28;20089;-74
2022/08/03 04:28:10;;;;;;;8.13;2.95;;;;;;;;;;5015050;28;20133;-74
2022/08/03 04:30:58;;;;;;;7.50;2.88;;;;;;;;;;5022092;28;20117;-74
2022/08/03 04:33:26;;;;;;;12.77;3.70;;;;;;;;;;5017023;28;20101;-74
2022/08/03 04:35:59;;;;;;;12.70;4.03;;;;;;;;;;5014153;28;20101;-74
2022/08/03 04:38:31;;;;;;;14.45;3.95;;;;;;;;;;5017089;28;20050;-74
2022/08/03 04:40:58;;;;;;;17.42;3.28;;;;;;;;;;5022040;28;20193;-74
2022/08/03 04:43:26;;;;;;;15.05;3.30;;;;;;;;;;5030363;28;20755;-76
2022/08/03 04:45:53;;;;;;;11.63;3.80;;;;;;;;;;5017145;28;20050;-74
2022/08/03 04:48:21;;;;;;;11.02;3.15;;;;;;;;;;5020045;28;20052;-75
2022/08/03 04:50:50;;;;;;;10.95;3.30;;;;;;;;;;5020499;28;20138;-74
2022/08/03 04:53:18;;;;;;;10.93;3.53;;;;;;;;;;5020798;28;20909;-75
2022/08/03 04:55:45;;;;;;;16.33;4.82;;;;;;;;;;5020918;28;20081;-76
2022/08/03 04:58:12;;;;;;;12.57;3.65;;;;;;;;;;5018666;28;20145;-75
2022/08/03 05:00:40;;;;;;;11.15;3.60;;;;;;;;;;5020614;28;20052;-74
2022/08/03 05:03:07;;;;;;;10.55;3.83;;;;;;;;;;5017895;28;20057;-76
2022/08/03 05:05:51;;;;;;;15.43;3.80;;;;;;;;;;5025037;28;20162;-77
2022/08/03 05:08:19;;;;;;;11.90;3.60;;;;;;;;;;5018350;28;20050;-75
2022/08/03 05:10:54;;;;;;;11.77;4.20;;;;;;;;;;5020053;28;20077;-75
2022/08/03 05:13:25;;;;;;;11.35;4.13;;;;;;;;;;5020693;28;20136;-74
2022/08/03 05:15:52;;;;;;;14.38;3.85;;;;;;;;;;5011863;28;20078;-75
2022/08/03 05:18:19;;;;;;;10.60;3.40;;;;;;;;;;5017777;28;20064;-76
2022/08/03 05:20:47;;;;;;;12.23;3.47;;;;;;;;;;5035781;28;20770;-75
2022/08/03 05:23:14;;;;;;;10.55;3.33;;;;;;;;;;5016795;28;20060;-75
2022/08/03 05:25:41;;;;;;;12.10;3.80;;;;;;;;;;5017475;28;20054;-74
2022/08/03 05:28:16;;;;;;;19.30;3.83;;;;;;;;;;5022643;28;20571;-74
2022/08/03 05:30:43;;;;;;;10.25;3.63;;;;;;;;;;5019267;28;20048;-75
2022/08/03 05:33:10;;;;;;;13.70;3.63;;;;;;;;;;5019745;28;20548;-75
2022/08/03 05:35:38;;;;;;;19.00;4.13;;;;;;;;;;5018766;28;20058;-75
2022/08/03 05:38:25;;;;;;;15.82;3.92;;;;;;;;;;5028036;28;20046;-76
2022/08/03 05:41:00;;;;;;;15.48;4.60;;;;;;;;;;5029835;28;20042;-75
2022/08/03 05:43:47;;;;;;;19.90;4.80;;;;;;;;;;5028761;28;20074;-74
2022/08/03 05:46:14;;;;;;;12.40;4.20;;;;;;;;;;5033300;28;20050;-75
2022/08/03 05:48:42;;;;;;;14.88;4.00;;;;;;;;;;5031956;28;20050;-74
2022/08/03 05:51:12;;;;;;;15.70;4.30;;;;;;;;;;5030461;28;20086;-74
2022/08/03 05:53:41;;;;;;;18.90;3.75;;;;;;;;;;5029531;28;20054;-76
2022/08/03 05:56:08;;;;;;;15.68;4.10;;;;;;;;;;5033204;28;20480;-75
2022/08/03 05:58:42;;;;;;;17.38;4.45;;;;;;;;;;5033017;28;20109;-75
2022/08/03 06:01:09;;;;;;;11.70;3.47;;;;;;;;;;5031542;28;20074;-74
2022/08/03 06:03:36;;;;;;;11.30;3.95;;;;;;;;;;5027912;28;20064;-74
2022/08/03 06:06:04;;;;;;;8.90;3.58;;;;;;;;;;5031626;28;20101;-75
2022/08/03 06:08:31;;;;;;;18.33;3.35;;;;;;;;;;5031357;28;20039;-74
2022/08/03 06:11:00;;;;;;;19.38;3.80;;;;;;;;;;5030553;28;20042;-74
2022/08/03 06:13:27;;;;;;;13.82;3.78;;;;;;;;;;5032778;28;20132;-75
2022/08/03 06:15:54;;;;;;;21.02;3.60;;;;;;;;;;5030580;28;20145;-75
2022/08/03 06:18:23;;;;;;;20.35;3.75;;;;;;;;;;5027147;28;20073;-75
2022/08/03 06:20:51;;;;;;;20.65;4.00;;;;;;;;;;5035541;28;20065;-75
2022/08/03 06:23:18;;;;;;;15.80;3.38;;;;;;;;;;5029157;28;20069;-75
2022/08/03 06:25:46;;;;;;;11.88;3.22;;;;;;;;;;5032505;28;20034;-75
2022/08/03 06:28:13;;;;;;;13.23;3.70;;;;;;;;;;5031744;28;20053;-74
2022/08/03 06:31:01;;;;;;;15.38;3.33;;;;;;;;;;5036548;28;20047;-76
2022/08/03 06:33:28;;;;;;;17.80;3.97;;;;;;;;;;5028280;28;20194;-75
2022/08/03 06:36:16;;;;;;;15.82;3.63;;;;;;;;;;5033395;28;20178;-74
2022/08/03 06:38:43;;;;;;;13.70;3.10;;;;;;;;;;5031026;28;20038;-74
2022/08/03 06:41:11;;;;;;;19.38;3.83;;;;;;;;;;5029848;28;20077;-75
2022/08/03 06:43:38;;;;;;;12.45;3.47;;;;;;;;;;5037588;28;20054;-74
2022/08/03 06:46:25;;;;;;;16.55;3.28;;;;;;;;;;5041649;28;20089;-74
2022/08/03 06:48:52;;;;;;;15.48;3.70;;;;;;;;;;5033957;28;20102;-74
2022/08/03 06:51:20;;;;;;;16.02;3.22;;;;;;;;;;5030201;28;20050;-73
2022/08/03 06:54:07;;;;;;;22.20;4.40;;;;;;;;;;5029910;28;20073;-76
2022/08/03 06:56:34;;;;;;;12.15;2.70;;;;;;;;;;5023578;28;20153;-74
2022/08/03 06:59:02;;;;;;;22.35;4.07;;;;;;;;;;5032970;28;20096;-74
2022/08/03 07:01:29;;;;;;;19.38;3.50;;;;;;;;;;5024201;28;20052;-74
2022/08/03 07:03:56;;;;;;;13.40;3.30;;;;;;;;;;5027040;28;20058;-73
2022/08/03 07:06:23;;;;;;;13.80;3.45;;;;;;;;;;5030538;28;20050;-74
2022/08/03 07:08:51;;;;;;;12.35;3.03;;;;;;;;;;5025089;28;20054;-74
2022/08/03 07:11:23;;;;;;;17.08;4.00;;;;;;;;;;5024032;28;20054;-74
2022/08/03 07:13:51;;;;;;;17.60;3.00;;;;;;;;;;5022984;28;20057;-75
2022/08/03 07:16:18;;;;;;;15.75;2.88;;;;;;;;;;5019751;28;20056;-74
2022/08/03 07:18:45;;;;;;;12.00;3.00;;;;;;;;;;5022710;28;20101;-72
2022/08/03 07:21:13;;;;;;;9.98;3.72;;;;;;;;;;5023948;28;20046;-73
2022/08/03 07:23:40;;;;;;;11.73;3.58;;;;;;;;;;5027767;28;20054;-75
2022/08/03 07:26:07;;;;;;;15.43;3.10;;;;;;;;;;5025051;28;20042;-74
2022/08/03 07:28:34;;;;;;;13.65;3.60;;;;;;;;;;5030843;28;20077;-74
2022/08/03 07:31:02;;;;;;;17.42;3.25;;;;;;;;;;5023325;28;20046;-74
2022/08/03 07:33:29;;;;;;;16.45;3.15;;;;;;;;;;5041003;28;20128;-74
2022/08/03 07:35:56;;;;;;;17.13;3.17;;;;;;;;;;5022864;28;20051;-73
2022/08/03 07:38:23;;;;;;;12.85;2.53;;;;;;;;;;5028526;28;20060;-73
2022/08/03 07:40:50;;;;;;;18.77;3.50;;;;;;;;;;5026367;28;20053;-74
2022/08/03 07:43:18;;;;;;;10.00;2.65;;;;;;;;;;5022022;28;20058;-74
2022/08/03 07:45:45;;;;;;;13.05;3.00;;;;;;;;;;5027446;28;20125;-75
2022/08/03 07:48:12;;;;;;;13.90;3.00;;;;;;;;;;5026685;28;20076;-75
2022/08/03 07:50:40;;;;;;;14.43;3.20;;;;;;;;;;5026198;28;20144;-73
2022/08/03 07:53:07;;;;;;;14.20;3.42;;;;;;;;;;5031557;28;20046;-74
2022/08/03 07:55:35;;;;;;;15.52;3.03;;;;;;;;;;5029885;28;20042;-72
2022/08/03 07:58:08;;;;;;;14.55;3.05;;;;;;;;;;5028420;28;20106;-73
2022/08/03 08:00:36;;;;;;;12.95;2.42;;;;;;;;;;5026093;28;20050;-74
2022/08/03 08:03:03;;;;;;;11.25;2.88;;;;;;;;;;5026439;28;20145;-74
2022/08/03 08:05:31;;;;;;;15.98;2.88;;;;;;;;;;5030667;28;20100;-75
2022/08/03 08:08:01;;;;;;;13.85;3.03;;;;;;;;;;5026844;28;20053;-76
2022/08/03 08:10:28;;;;;;;13.57;2.85;;;;;;;;;;5027349;28;20042;-75
2022/08/03 08:12:55;;;;;;;22.05;3.10;;;;;;;;;;5026222;28;20065;-74
2022/08/03 08:15:23;;;;;;;17.70;3.50;;;;;;;;;;5045813;28;20129;-75
2022/08/03 08:17:52;;;;;;;19.58;3.08;;;;;;;;;;5031500;28;20053;-75
2022/08/03 08:20:21;;;;;;;14.40;3.00;;;;;;;;;;5036462;28;20053;-76
2022/08/03 08:22:58;;;;;;;18.17;3.08;;;;;;;;;;5047637;28;20178;-75
2022/08/03 08:25:28;;;;;;;18.05;3.53;;;;;;;;;;5032552;28;20055;-74
2022/08/03 08:27:55;;;;;;;22.40;3.28;;;;;;;;;;5028679;28;20057;-75
2022/08/03 08:30:43;;;;;;;18.00;3.50;;;;;;;;;;5029401;28;20056;-75
2022/08/03 08:33:11;;;;;;;11.98;2.80;;;;;;;;;;5028641;28;20061;-75
2022/08/03 08:35:50;;;;;;;15.82;3.05;;;;;;;;;;5033679;28;20142;-76
2022/08/03 08:38:17;;;;;;;11.23;2.97;;;;;;;;;;5033317;28;20145;-74
2022/08/03 08:40:44;;;;;;;17.95;3.38;;;;;;;;;;5041299;28;20048;-74
2022/08/03 08:43:11;;;;;;;13.50;3.05;;;;;;;;;;5029094;28;20058;-76
2022/08/03 08:45:40;;;;;;;18.10;3.00;;;;;;;;;;5034511;28;20045;-76
2022/08/03 08:48:09;;;;;;;15.32;3.22;;;;;;;;;;5029919;28;20121;-76
2022/08/03 08:50:37;;;;;;;24.77;3.72;;;;;;;;;;5034810;28;20050;-74
2022/08/03 08:53:06;;;;;;;20.73;3.75;;;;;;;;;;5025831;28;20046;-75
2022/08/03 08:55:36;;;;;;;20.05;2.88;;;;;;;;;;5035904;28;20166;-76
2022/08/03 08:58:24;;;;;;;17.85;3.40;;;;;;;;;;5031483;28;20050;-74
2022/08/03 09:00:51;;;;;;;13.13;2.65;;;;;;;;;;5029417;28;20125;-74
2022/08/03 09:03:18;;;;;;;13.20;2.80;;;;;;;;;;5029422;28;20086;-74
2022/08/03 09:05:55;;;;;;;15.57;3.10;;;;;;;;;;5026865;28;20054;-75
2022/08/03 09:08:22;;;;;;;20.35;3.33;;;;;;;;;;5024344;28;20118;-75
2022/08/03 09:10:49;;;;;;;14.70;3.17;;;;;;;;;;5022765;28;20153;-75
2022/08/03 09:13:17;;;;;;;16.58;3.35;;;;;;;;;;5023263;28;20038;-74
2022/08/03 09:15:45;;;;;;;13.07;2.72;;;;;;;;;;5026673;28;20050;-73
2022/08/03 09:18:32;;;;;;;16.25;3.00;;;;;;;;;;5029102;28;20061;-75
2022/08/03 09:21:13;;;;;;;17.08;2.83;;;;;;;;;;5048278;28;20053;-75
2022/08/03 09:23:57;;;;;;;16.00;2.65;;;;;;;;;;5033835;28;20878;-74
2022/08/03 09:26:30;;;;;;;10.32;2.58;;;;;;;;;;5028014;28;20045;-74
2022/08/03 09:28:58;;;;;;;12.05;2.88;;;;;;;;;;5025307;28;20050;-74
2022/08/03 09:31:34;;;;;;;14.45;3.17;;;;;;;;;;5027619;28;20122;-76
2022/08/03 09:34:11;;;;;;;15.38;3.30;;;;;;;;;;5024798;28;20046;-73
2022/08/03 09:36:40;;;;;;;16.63;3.50;;;;;;;;;;5028810;28;20796;-74
2022/08/03 09:39:10;;;;;;;18.95;3.45;;;;;;;;;;5030918;28;20052;-75
2022/08/03 09:41:41;;;;;;;21.48;3.03;;;;;;;;;;5025707;28;20054;-74
2022/08/03 09:44:08;;;;;;;17.08;3.10;;;;;;;;;;5028261;28;20042;-74
2022/08/03 09:46:54;;;;;;;15.27;3.20;;;;;;;;;;5026591;28;20133;-77
2022/08/03 09:49:21;;;;;;;17.20;3.10;;;;;;;;;;5029224;28;20102;-74
2022/08/03 09:51:49;;;;;;;21.30;2.97;;;;;;;;;;5027872;28;20046;-75
2022/08/03 09:54:36;;;;;;;16.83;2.50;;;;;;;;;;5024701;28;20691;-72
2022/08/03 09:57:03;;;;;;;12.65;2.45;;;;;;;;;;5025375;28;20060;-73
2022/08/03 09:59:31;;;;;;;18.83;2.45;;;;;;;;;;5021144;28;20050;-74
2022/08/03 10:02:00;;;;;;;14.80;3.20;;;;;;;;;;5025309;28;20106;-75
2022/08/03 10:04:28;;;;;;;17.55;2.95;;;;;;;;;;5022841;28;20056;-74
2022/08/03 10:07:08;;;;;;;16.42;2.75;;;;;;;;;;5025362;28;20049;-75
2022/08/03 10:09:35;;;;;;;19.02;2.97;;;;;;;;;;5029742;28;20046;-72
2022/08/03 10:12:12;;;;;;;16.38;3.13;;;;;;;;;;5036091;28;20053;-76
2022/08/03 10:14:42;;;;;;;20.95;3.17;;;;;;;;;;5030126;28;20047;-78
2022/08/03 10:17:09;;;;;;;12.73;2.58;;;;;;;;;;5027619;28;20034;-77
2022/08/03 10:19:37;;;;;;;19.02;3.53;;;;;;;;;;5027427;28;20062;-76
2022/08/03 10:22:11;;;;;;;22.15;3.25;;;;;;;;;;5026566;28;20058;-76
2022/08/03 10:24:39;;;;;;;18.45;2.95;;;;;;;;;;5025086;28;20101;-74
2022/08/03 10:27:07;;;;;;;16.58;2.67;;;;;;;;;;5029308;28;20098;-74
2022/08/03 10:29:37;;;;;;;12.95;2.58;;;;;;;;;;5033402;28;20061;-75
2022/08/03 10:32:09;;;;;;;12.15;2.78;;;;;;;;;;5032071;28;20069;-76
2022/08/03 10:34:39;;;;;;;20.38;3.30;;;;;;;;;;5031381;28;20051;-76
2022/08/03 10:37:11;;;;;;;17.98;2.78;;;;;;;;;;5028980;28;20061;-74
2022/08/03 10:39:52;;;;;;;17.00;2.58;;;;;;;;;;5028571;28;20061;-76
2022/08/03 10:42:20;;;;;;;24.40;3.08;;;;;;;;;;5045796;28;20141;-76
2022/08/03 10:44:52;;;;;;;16.83;3.33;;;;;;;;;;5020656;28;20065;-77
2022/08/03 10:47:20;;;;;;;12.73;2.70;;;;;;;;;;5020141;28;20510;-77
2022/08/03 10:49:48;;;;;;;17.85;2.65;;;;;;;;;;5045722;28;20046;-76
2022/08/03 10:52:16;;;;;;;15.00;2.70;;;;;;;;;;5028479;28;20054;-75
2022/08/03 10:57:54;;;;;;;10.35;2.08;;;;;;;;;;5025840;28;20088;-76
2022/08/03 11:00:26;;;;;;;13.90;2.10;;;;;;;;;;5023510;28;20059;-75
2022/08/03 11:03:08;;;;;;;17.33;3.28;;;;;;;;;;5025585;28;20142;-74
2022/08/03 11:05:37;;;;;;;13.43;2.47;;;;;;;;;;5019101;28;20105;-75
2022/08/03 11:08:18;;;;;;;13.40;2.70;;;;;;;;;;5020675;28;20134;-76
2022/08/03 11:10:46;;;;;;;14.80;2.58;;;;;;;;;;5026387;28;20053;-78
2022/08/03 11:13:17;;;;;;;15.02;2.78;;;;;;;;;;5029281;28;20056;-75
2022/08/03 11:15:45;;;;;;;10.30;2.28;;;;;;;;;;5030270;28;20574;-74
2022/08/03 11:18:13;;;;;;;13.43;2.42;;;;;;;;;;5029440;28;20055;-75
2022/08/03 11:20:51;;;;;;;12.77;2.65;;;;;;;;;;5028491;28;20053;-75
2022/08/03 11:23:20;;;;;;;13.75;3.00;;;;;;;;;;5028599;28;20039;-74
2022/08/03 11:26:08;;;;;;;13.98;2.58;;;;;;;;;;5032213;28;20053;-77
2022/08/03 11:28:37;;;;;;;7.70;2.00;;;;;;;;;;5034927;28;20109;-75
2022/08/03 11:31:26;;;;;;;12.57;2.63;;;;;;;;;;5036426;28;20046;-75
2022/08/03 11:34:14;;;;;;;16.73;2.60;;;;;;;;;;5027082;28;20053;-74
2022/08/03 11:37:00;;;;;;;13.30;2.58;;;;;;;;;;5032462;28;20104;-76
2022/08/03 11:39:44;;;;;;;14.85;2.47;;;;;;;;;;5031389;28;20120;-75
2022/08/03 11:42:25;;;;;;;11.30;2.63;;;;;;;;;;5033843;28;20046;-78
2022/08/03 11:44:59;;;;;;;9.80;2.00;;;;;;;;;;5036855;28;20097;-77
2022/08/03 11:47:27;;;;;;;11.57;1.98;;;;;;;;;;5034991;28;20050;-74
2022/08/03 11:50:00;;;;;;;10.15;2.10;;;;;;;;;;5030360;28;20046;-78
2022/08/03 11:52:34;;;;;;;13.50;2.35;;;;;;;;;;5041679;28;20058;-75
2022/08/03 11:55:01;;;;;;;17.58;2.17;;;;;;;;;;5056290;28;20109;-76
2022/08/03 11:57:31;;;;;;;10.95;2.30;;;;;;;;;;5042938;28;20064;-76
2022/08/03 12:00:27;;;;;;;11.43;1.90;;;;;;;;;;5029649;28;20058;-74
2022/08/03 12:03:08;;;;;;;9.95;2.30;;;;;;;;;;5039314;28;20137;-75
2022/08/03 12:05:40;;;;;;;15.38;2.65;;;;;;;;;;5034956;28;20051;-75
2022/08/03 12:08:18;;;;;;;12.43;2.30;;;;;;;;;;5029116;28;20061;-75
2022/08/03 12:10:49;;;;;;;10.93;1.83;;;;;;;;;;5036726;28;20077;-75
2022/08/03 12:13:20;;;;;;;11.75;2.40;;;;;;;;;;5048892;28;20050;-75
2022/08/03 12:16:08;;;;;;;9.13;2.15;;;;;;;;;;5034079;28;20060;-75
2022/08/03 12:18:35;;;;;;;9.65;2.05;;;;;;;;;;5033426;28;20050;-75
2022/08/03 12:21:04;;;;;;;8.38;1.85;;;;;;;;;;5026284;28;20033;-76
2022/08/03 12:23:31;;;;;;;10.57;2.40;;;;;;;;;;5023982;28;20049;-75
2022/08/03 12:26:06;;;;;;;12.70;2.33;;;;;;;;;;5048342;28;20054;-78
2022/08/03 12:28:33;;;;;;;10.75;2.90;;;;;;;;;;5031748;28;20054;-77
2022/08/03 12:31:08;;;;;;;8.70;2.00;;;;;;;;;;5035218;28;20034;-75
2022/08/03 12:33:56;;;;;;;12.63;2.10;;;;;;;;;;5030405;28;20081;-75
2022/08/03 12:36:26;;;;;;;13.93;2.13;;;;;;;;;;5026131;28;20041;-75
2022/08/03 12:38:55;;;;;;;12.43;2.40;;;;;;;;;;5030400;28;20129;-75
2022/08/03 12:41:32;;;;;;;10.95;1.92;;;;;;;;;;5017859;28;20058;-75
2022/08/03 12:44:03;;;;;;;10.50;2.03;;;;;;;;;;5029920;28;20042;-77
2022/08/03 12:46:35;;;;;;;9.25;1.90;;;;;;;;;;5031057;28;20795;-75
2022/08/03 12:49:03;;;;;;;;;;;;;;;;;;5031435;28;20056;-75
2022/08/03 12:51:31;;;;;;;9.30;1.90;;;;;;;;;;5024797;28;43783;-75
2022/08/03 12:53:59;;;;;;;9.57;1.83;;;;;;;;;;5034035;28;20034;-77
2022/08/03 12:56:26;;;;;;;12.00;1.83;;;;;;;;;;5029047;28;20046;-76
2022/08/03 12:58:54;;;;;;;7.65;1.77;;;;;;;;;;5026161;28;20089;-75
2022/08/03 13:01:23;;;;;;;10.50;2.45;;;;;;;;;;5028921;28;20137;-76
2022/08/03 13:03:52;;;;;;;8.25;1.90;;;;;;;;;;5025004;28;20136;-75
2022/08/03 13:06:21;;;;;;;9.68;1.70;;;;;;;;;;5030201;28;20141;-75
2022/08/03 13:08:50;;;;;;;14.02;2.08;;;;;;;;;;5025748;28;20126;-75
2022/08/03 13:11:21;;;;;;;7.82;1.73;;;;;;;;;;5041449;28;20133;-74
2022/08/03 13:13:48;;;;;;;6.28;1.70;;;;;;;;;;5024064;28;20583;-76
2022/08/03 13:16:16;;;;;;;7.28;2.08;;;;;;;;;;5032323;28;20132;-75
2022/08/03 13:18:45;;;;;;;6.13;2.10;;;;;;;;;;5031555;28;20053;-76
2022/08/03 13:21:15;;;;;;;7.70;1.80;;;;;;;;;;5033486;28;20062;-74
2022/08/03 13:23:42;;;;;;;9.05;1.77;;;;;;;;;;5033981;28;20148;-75
2022/08/03 13:26:10;;;;;;;7.57;1.88;;;;;;;;;;5034087;28;20095;-74
2022/08/03 13:28:38;;;;;;;8.60;1.90;;;;;;;;;;5026120;28;20049;-74
2022/08/03 13:31:06;;;;;;;7.40;1.95;;;;;;;;;;5033651;28;20112;-75
2022/08/03 13:33:33;;;;;;;9.95;2.58;;;;;;;;;;5033371;28;20064;-75
2022/08/03 13:36:00;;;;;;;10.38;2.10;;;;;;;;;;5033762;28;20176;-78
2022/08/03 13:38:30;;;;;;;9.18;2.30;;;;;;;;;;5025458;28;20064;-75
2022/08/03 13:41:01;;;;;;;4.80;1.80;;;;;;;;;;5027376;28;20045;-75
2022/08/03 13:43:31;;;;;;;8.15;2.50;;;;;;;;;;5028678;28;20081;-76
2022/08/03 13:45:58;;;;;;;6.25;2.03;;;;;;;;;;5033893;28;20080;-77
2022/08/03 13:48:26;;;;;;;7.82;2.28;;;;;;;;;;5032047;28;20124;-77
2022/08/03 13:51:04;;;;;;;9.98;2.13;;;;;;;;;;5028305;28;20058;-78
2022/08/03 13:53:49;;;;;;;8.95;2.30;;;;;;;;;;5037170;28;20065;-75
2022/08/03 13:56:16;;;;;;;6.35;2.17;;;;;;;;;;5032001;28;20033;-75
2022/08/03 13:58:43;;;;;;;9.80;2.75;;;;;;;;;;5050952;28;20161;-73
2022/08/03 14:01:10;;;;;;;4.85;2.10;;;;;;;;;;5033231;28;20145;-77
2022/08/03 14:03:38;;;;;;;5.13;1.92;;;;;;;;;;5030194;28;20082;-76
2022/08/03 14:06:05;;;;;;;8.35;2.15;;;;;;;;;;5030520;28;20413;-75
2022/08/03 14:08:34;;;;;;;8.60;2.53;;;;;;;;;;5035036;28;20105;-77
2022/08/03 14:11:01;;;;;;;8.43;1.92;;;;;;;;;;5030615;28;20132;-76
2022/08/03 14:13:28;;;;;;;8.30;2.10;;;;;;;;;;5025911;28;20049;-75
2022/08/03 14:15:56;;;;;;;6.65;1.95;;;;;;;;;;5019300;28;21101;-74
2022/08/03 14:18:25;;;;;;;5.45;2.20;;;;;;;;;;5022520;28;20055;-75
2022/08/03 14:21:00;;;;;;;6.55;1.90;;;;;;;;;;5027151;28;20051;-75
2022/08/03 14:23:32;;;;;;;4.55;1.90;;;;;;;;;;5021458;28;20066;-76
2022/08/03 14:26:00;;;;;;;8.13;2.15;;;;;;;;;;5030858;28;20052;-78
2022/08/03 14:28:27;;;;;;;9.32;1.80;;;;;;;;;;5020783;28;20105;-74
2022/08/03 14:30:55;;;;;;;7.97;2.00;;;;;;;;;;5032558;28;20060;-75
2022/08/03 14:33:22;;;;;;;5.63;1.70;;;;;;;;;;5041761;28;20064;-75
2022/08/03 14:35:52;;;;;;;5.25;1.98;;;;;;;;;;5025910;28;20142;-75
2022/08/03 14:38:22;;;;;;;9.02;1.60;;;;;;;;;;5048953;28;20256;-76
2022/08/03 14:40:49;;;;;;;12.63;2.25;;;;;;;;;;5033962;28;20173;-75
2022/08/03 14:43:18;;;;;;;6.13;1.90;;;;;;;;;;5030486;28;20081;-76
2022/08/03 14:45:47;;;;;;;5.95;2.10;;;;;;;;;;5030777;28;20065;-77
2022/08/03 14:48:14;;;;;;;5.35;1.77;;;;;;;;;;5037203;28;20039;-77
2022/08/03 14:51:01;;;;;;;5.22;2.17;;;;;;;;;;5027881;28;20038;-75
2022/08/03 14:53:29;;;;;;;6.47;2.00;;;;;;;;;;5029472;28;20042;-76
2022/08/03 14:55:56;;;;;;;7.15;2.20;;;;;;;;;;5033201;28;20048;-75
2022/08/03 14:58:25;;;;;;;5.20;1.90;;;;;;;;;;5027697;28;20106;-78
2022/08/03 15:00:53;;;;;;;4.70;1.60;;;;;;;;;;5023000;28;20056;-75
2022/08/03 15:03:24;;;;;;;5.03;1.95;;;;;;;;;;5036577;28;20042;-77
2022/08/03 15:05:52;;;;;;;4.63;1.60;;;;;;;;;;5036421;28;20939;-75
2022/08/03 15:08:23;;;;;;;8.57;2.20;;;;;;;;;;5027337;28;20038;-74